Air Navigation Services of Czech Republic
Airport: LKPR Updated:  04.06.2020 10:00:24  UTC
 METAR LKPR 04.06. 10:00 ...
METAR LKPR 041000Z 16007KT 100V190 9999 FEW036 20/13 Q0997 NOSIG RMK REG QNH 0995=
 TAF LKPR 04.06. 05:00 ...
TAF LKPR 040500Z 0406/0512 15005KT CAVOK      BECMG 0408/0410 9999 BKN040      BECMG 0410/0412 23010KT      TEMPO 0412/0512 6000 SHRA SCT035CB      PROB40 TEMPO 0413/0416 3000 TSRA SCT015CB BKN020=